Time;durP1;ratioP1;P1;durP2;ratioP2;P2;SDS_P1;SDS_P2;PMS_P1;PMS_P2;Temp;Humidity;BMP_temperature;BMP_pressure;BME280_temperature;BME280_humidity;BME280_pressure;Samples;Min_cycle;Max_cycle;Signal;HPM_P1;HPM_P2
2021/06/08 00:02:09;;;;;;;12.05;8.15;;;;;;;17.30;72.36;98879.22;5052805;28;20040;-70
2021/06/08 00:04:35;;;;;;;10.90;7.43;;;;;;;17.29;72.40;98880.25;5035838;28;20068;-72
2021/06/08 00:07:01;;;;;;;12.43;7.55;;;;;;;17.30;72.30;98889.94;5036325;28;20484;-71
2021/06/08 00:09:27;;;;;;;16.05;7.53;;;;;;;17.28;72.66;98885.84;5036832;28;20462;-71
2021/06/08 00:11:52;;;;;;;12.05;7.32;;;;;;;17.25;72.57;98878.25;5070122;28;20062;-71
2021/06/08 00:14:19;;;;;;;15.85;7.55;;;;;;;17.24;72.57;98877.41;5037245;28;20090;-79
2021/06/08 00:16:44;;;;;;;16.63;7.65;;;;;;;17.22;72.75;98879.47;5070491;28;20044;-71
2021/06/08 00:19:10;;;;;;;19.42;8.77;;;;;;;17.16;72.85;98876.88;5036642;28;20083;-71
2021/06/08 00:21:36;;;;;;;12.77;8.60;;;;;;;17.08;73.11;98877.97;5037086;28;20071;-71
2021/06/08 00:24:03;;;;;;;17.58;9.23;;;;;;;16.99;73.61;98881.91;5036610;28;20519;-71
2021/06/08 00:26:29;;;;;;;11.95;8.35;;;;;;;16.93;73.75;98879.31;5036483;28;20044;-72
2021/06/08 00:28:55;;;;;;;16.73;8.35;;;;;;;16.85;73.86;98883.06;5027323;28;20071;-72
2021/06/08 00:31:21;;;;;;;18.20;8.20;;;;;;;16.80;74.03;98874.84;5053044;28;20056;-73
2021/06/08 00:33:47;;;;;;;18.23;9.43;;;;;;;16.76;74.33;98887.84;5035074;28;20051;-73
2021/06/08 00:36:14;;;;;;;14.07;8.60;;;;;;;16.75;74.39;98885.38;5050786;28;20040;-72
2021/06/08 00:38:41;;;;;;;13.00;7.93;;;;;;;16.71;74.38;98878.81;5034620;28;20275;-71
2021/06/08 00:41:06;;;;;;;14.55;8.93;;;;;;;16.72;74.44;98881.28;5084862;28;20512;-73
2021/06/08 00:43:32;;;;;;;17.58;8.75;;;;;;;16.69;74.85;98883.56;5068138;28;20051;-71
2021/06/08 00:45:58;;;;;;;16.88;8.57;;;;;;;16.66;74.82;98878.63;5034767;28;20075;-71
2021/06/08 00:48:24;;;;;;;18.13;8.57;;;;;;;16.63;75.08;98884.44;5053023;28;20052;-71
2021/06/08 00:50:50;;;;;;;14.82;8.32;;;;;;;16.25;75.05;98836.13;5053202;28;20044;-72
2021/06/08 00:53:16;;;;;;;13.10;8.75;;;;;;;16.55;75.53;98893.56;5036561;28;20048;-71
2021/06/08 00:55:42;;;;;;;14.98;8.60;;;;;;;16.54;75.59;98894.56;5069421;28;20040;-71
2021/06/08 00:58:08;;;;;;;16.25;8.60;;;;;;;16.52;75.75;98893.16;5036124;28;20037;-71
2021/06/08 01:00:35;;;;;;;17.45;8.68;;;;;;;16.52;75.53;98885.94;5052882;28;20623;-71
2021/06/08 01:03:02;;;;;;;15.00;8.63;;;;;;;16.51;75.51;98886.94;5035785;28;20044;-71
2021/06/08 01:05:28;;;;;;;13.90;8.40;;;;;;;16.52;75.50;98888.63;5036069;28;20044;-71
2021/06/08 01:07:54;;;;;;;17.67;8.93;;;;;;;16.53;75.68;98889.41;5052434;28;20129;-71
2021/06/08 01:10:20;;;;;;;20.02;8.65;;;;;;;16.51;75.73;98896.88;5036427;28;20064;-71
2021/06/08 01:12:46;;;;;;;13.07;8.90;;;;;;;16.48;75.88;98895.41;5035975;28;20067;-71
2021/06/08 01:15:12;;;;;;;12.65;7.80;;;;;;;16.49;75.91;98888.22;5035803;28;21018;-70
2021/06/08 01:17:39;;;;;;;15.70;9.02;;;;;;;16.48;75.95;98887.38;5052346;28;20118;-70
2021/06/08 01:20:07;;;;;;;14.65;10.07;;;;;;;16.47;75.88;98885.75;5052225;28;20512;-70
2021/06/08 01:22:33;;;;;;;19.90;10.98;;;;;;;16.14;76.19;98844.88;5035713;28;20060;-71
2021/06/08 01:24:59;;;;;;;17.05;10.60;;;;;;;16.37;76.47;98892.56;5052398;28;20043;-72
2021/06/08 01:27:26;;;;;;;19.35;11.10;;;;;;;16.35;76.52;98894.63;5035178;28;20040;-71
2021/06/08 01:29:53;;;;;;;16.50;10.93;;;;;;;16.33;76.74;98891.34;5068144;28;20531;-72
2021/06/08 01:32:22;;;;;;;16.70;9.80;;;;;;;16.33;76.79;98892.16;5067862;28;20060;-69
2021/06/08 01:34:49;;;;;;;17.27;9.65;;;;;;;16.33;76.62;98889.50;5018329;28;20044;-69
2021/06/08 01:37:15;;;;;;;19.30;9.82;;;;;;;16.33;76.65;98888.66;5034841;28;20080;-69
2021/06/08 01:39:42;;;;;;;14.60;9.75;;;;;;;16.33;76.63;98888.66;5019369;28;20039;-69
2021/06/08 01:42:09;;;;;;;18.23;9.70;;;;;;;16.35;76.66;98891.97;5065315;28;20559;-75
2021/06/08 01:44:35;;;;;;;16.17;9.65;;;;;;;16.24;76.59;98863.13;5022815;28;20131;-69
2021/06/08 01:47:01;;;;;;;15.40;9.93;;;;;;;16.38;76.56;98889.69;5039533;28;20132;-71
2021/06/08 01:49:27;;;;;;;15.07;9.60;;;;;;;16.41;76.58;98889.25;5039609;28;20036;-71
2021/06/08 01:52:03;;;;;;;17.90;10.00;;;;;;;16.45;76.47;98889.69;5040038;28;20075;-71
2021/06/08 01:54:37;;;;;;;21.00;9.73;;;;;;;16.48;76.44;98889.25;5039489;28;20573;-71
2021/06/08 01:57:08;;;;;;;22.48;10.00;;;;;;;16.50;76.19;98879.13;5072649;28;20041;-72
2021/06/08 01:59:50;;;;;;;17.30;9.68;;;;;;;16.53;75.98;98884.06;5056466;28;20052;-70
2021/06/08 02:02:44;;;;;;;20.35;9.43;;;;;;;16.62;75.71;98883.59;5056068;28;20139;-70
2021/06/08 02:05:34;;;;;;;12.98;9.85;;;;;;;16.67;75.70;98885.63;5039155;28;20411;-70
2021/06/08 02:08:20;;;;;;;14.48;9.40;;;;;;;16.74;75.40;98889.13;5039281;28;20059;-70
2021/06/08 02:10:53;;;;;;;18.63;10.07;;;;;;;16.79;75.07;98876.69;5055753;28;20048;-70
2021/06/08 02:13:34;;;;;;;20.42;10.52;;;;;;;16.85;74.89;98880.41;5055972;28;20052;-70
2021/06/08 02:16:10;;;;;;;20.75;10.70;;;;;;;16.93;74.63;98890.03;5022551;28;20500;-71
2021/06/08 02:18:36;;;;;;;20.70;10.52;;;;;;;16.99;74.52;98887.28;5039177;28;20443;-70
2021/06/08 02:21:03;;;;;;;17.88;10.25;;;;;;;17.06;74.44;98881.88;5039083;28;20055;-71
2021/06/08 02:23:30;;;;;;;24.13;10.77;;;;;;;17.12;73.98;98886.38;5039001;28;20048;-71
2021/06/08 02:25:57;;;;;;;20.48;10.90;;;;;;;17.14;73.84;98887.81;5055873;28;20139;-76
2021/06/08 02:28:26;;;;;;;19.70;10.90;;;;;;;17.22;73.42;98892.09;5072385;28;20131;-70
2021/06/08 02:30:54;;;;;;;19.48;10.63;;;;;;;17.25;73.55;98886.28;5072209;28;20044;-70
2021/06/08 02:33:22;;;;;;;23.20;10.40;;;;;;;17.29;73.45;98893.69;5038691;28;20041;-69
2021/06/08 02:35:48;;;;;;;18.85;9.18;;;;;;;17.29;73.38;98884.81;5055524;28;20075;-70
2021/06/08 02:38:15;;;;;;;19.20;9.98;;;;;;;17.34;73.12;98891.16;5055338;28;20051;-71
2021/06/08 02:40:41;;;;;;;22.95;9.50;;;;;;;17.36;72.76;98896.31;5055165;28;20404;-71
2021/06/08 02:43:07;;;;;;;18.48;9.15;;;;;;;17.39;72.98;98895.88;5088491;28;20530;-71
2021/06/08 02:45:34;;;;;;;17.95;8.73;;;;;;;17.43;72.72;98905.13;5055237;28;20051;-71
2021/06/08 02:48:01;;;;;;;19.73;9.43;;;;;;;17.42;72.78;98896.25;5055154;28;20044;-71
2021/06/08 02:50:28;;;;;;;14.05;8.85;;;;;;;17.44;72.72;98902.25;5054127;28;20044;-72
2021/06/08 02:52:54;;;;;;;24.42;9.65;;;;;;;17.45;72.65;98903.09;5043858;28;20048;-72
2021/06/08 02:55:22;;;;;;;16.20;8.80;;;;;;;17.45;72.43;98893.16;5036199;28;20070;-72
2021/06/08 02:57:51;;;;;;;17.23;8.75;;;;;;;17.46;72.42;98889.44;5035862;28;20040;-72
2021/06/08 03:00:17;;;;;;;19.52;9.32;;;;;;;17.49;72.41;98894.38;5052404;28;20045;-72
2021/06/08 03:02:45;;;;;;;18.83;8.85;;;;;;;17.54;72.07;98899.91;5069107;28;20066;-73
2021/06/08 03:05:22;;;;;;;17.13;8.68;;;;;;;17.57;71.71;98904.00;5052215;28;20205;-72
2021/06/08 03:07:51;;;;;;;16.50;8.20;;;;;;;17.61;71.56;98907.88;5069634;28;20618;-73
2021/06/08 03:10:19;;;;;;;14.48;8.00;;;;;;;17.65;71.30;98906.41;5071362;28;20056;-70
2021/06/08 03:12:55;;;;;;;19.98;7.90;;;;;;;17.70;71.14;98911.94;5037513;28;20416;-69
2021/06/08 03:15:28;;;;;;;17.90;10.07;;;;;;;17.79;70.79;98905.25;5054548;28;20161;-71
2021/06/08 03:17:53;;;;;;;12.68;9.27;;;;;;;17.88;70.67;98901.22;5071159;28;20041;-71
2021/06/08 03:20:26;;;;;;;14.85;8.80;;;;;;;17.98;70.25;98902.34;5087721;28;20113;-70
2021/06/08 03:22:56;;;;;;;17.45;9.18;;;;;;;18.07;69.80;98900.19;5054309;28;20055;-71
2021/06/08 03:25:23;;;;;;;20.30;9.75;;;;;;;18.16;69.89;98905.03;5054298;28;20044;-70
2021/06/08 03:27:49;;;;;;;17.02;9.52;;;;;;;18.24;69.59;98895.84;5070912;28;20058;-70
2021/06/08 03:30:16;;;;;;;18.65;9.95;;;;;;;18.31;69.14;98896.63;5054102;28;20094;-71
2021/06/08 03:32:43;;;;;;;22.98;10.00;;;;;;;18.38;69.05;98903.59;5087186;28;20067;-71
2021/06/08 03:35:10;;;;;;;24.52;11.35;;;;;;;18.43;68.98;98911.78;5036933;28;20071;-72
2021/06/08 03:37:37;;;;;;;25.10;11.70;;;;;;;18.53;68.64;98907.75;5054266;28;20181;-71
2021/06/08 03:40:06;;;;;;;21.42;10.15;;;;;;;18.59;68.01;98906.84;5037301;28;20544;-71
2021/06/08 03:42:32;;;;;;;17.33;8.40;;;;;;;18.66;67.63;98904.88;5053694;28;20043;-72
2021/06/08 03:45:00;;;;;;;16.85;8.70;;;;;;;18.70;67.16;98906.88;5054147;28;20397;-71
2021/06/08 03:47:27;;;;;;;11.70;7.68;;;;;;;18.76;66.86;98905.19;5054191;28;20040;-71
2021/06/08 03:49:54;;;;;;;11.73;7.57;;;;;;;18.83;66.48;98904.03;5035204;28;20052;-74
2021/06/08 03:52:20;;;;;;;12.63;7.05;;;;;;;18.90;66.22;98904.75;5068091;28;20051;-72
2021/06/08 03:54:46;;;;;;;12.55;7.43;;;;;;;19.02;65.75;98910.97;5068441;28;20182;-72
2021/06/08 03:57:12;;;;;;;12.30;7.45;;;;;;;19.12;65.52;98916.66;5068133;28;20126;-73
2021/06/08 03:59:40;;;;;;;15.48;8.07;;;;;;;19.18;65.01;98907.66;5034818;28;20040;-75
2021/06/08 04:02:06;;;;;;;22.55;8.25;;;;;;;19.25;64.60;98913.72;5084978;28;20519;-72
2021/06/08 04:04:32;;;;;;;15.05;7.75;;;;;;;19.34;64.50;98909.69;5051478;28;20044;-78
2021/06/08 04:06:58;;;;;;;17.20;8.05;;;;;;;19.34;64.12;98900.81;5035544;28;20492;-72
2021/06/08 04:09:24;;;;;;;10.45;6.78;;;;;;;19.41;63.40;98910.41;5048040;28;20047;-72
2021/06/08 04:11:51;;;;;;;10.73;6.70;;;;;;;19.38;63.16;98900.09;5092916;28;20074;-71
2021/06/08 04:14:18;;;;;;;11.10;6.80;;;;;;;19.57;63.27;98909.72;5075843;28;20050;-72
2021/06/08 04:16:45;;;;;;;9.57;6.05;;;;;;;19.63;62.36;98918.75;5075734;28;20559;-72
2021/06/08 04:19:12;;;;;;;9.38;5.40;;;;;;;19.68;62.84;98911.59;5075877;28;20052;-74
2021/06/08 04:21:38;;;;;;;11.45;5.50;;;;;;;19.76;62.23;98919.34;5092697;28;20035;-70
2021/06/08 04:24:06;;;;;;;14.63;5.63;;;;;;;19.83;61.83;98911.16;5052570;28;20067;-67
2021/06/08 04:26:32;;;;;;;44.92;7.63;;;;;;;19.93;61.41;98911.38;5088496;28;20165;-67
2021/06/08 04:28:58;;;;;;;22.17;5.68;;;;;;;19.99;61.06;98921.19;5072184;28;20100;-66
2021/06/08 04:31:25;;;;;;;21.33;6.20;;;;;;;20.02;61.13;98918.03;5072348;28;20056;-65
2021/06/08 04:33:51;;;;;;;27.70;6.82;;;;;;;20.05;61.14;98909.47;5072114;28;20147;-67
2021/06/08 04:36:18;;;;;;;31.10;6.05;;;;;;;19.96;60.83;98900.94;5072201;28;20057;-68
2021/06/08 04:38:45;;;;;;;32.42;6.20;;;;;;;20.11;60.95;98919.34;5072240;28;20040;-67
2021/06/08 04:41:11;;;;;;;36.72;6.18;;;;;;;20.12;60.52;98912.88;5089087;28;20104;-67
2021/06/08 04:43:37;;;;;;;24.05;6.57;;;;;;;20.14;60.55;98916.19;5039372;28;20055;-68
2021/06/08 04:46:05;;;;;;;38.45;8.52;;;;;;;20.19;60.46;98923.59;5072140;28;20500;-68
2021/06/08 04:48:32;;;;;;;10.95;4.88;;;;;;;20.21;60.35;98916.88;5071734;28;20043;-68
2021/06/08 04:50:58;;;;;;;28.17;8.55;;;;;;;20.24;60.33;98921.81;5089122;28;20040;-67
2021/06/08 04:53:24;;;;;;;9.95;4.10;;;;;;;20.14;59.68;98894.63;5088312;28;20051;-67
2021/06/08 04:55:51;;;;;;;9.93;4.57;;;;;;;20.31;59.40;98919.81;5072232;28;20039;-67
2021/06/08 04:58:17;;;;;;;17.10;4.63;;;;;;;20.34;59.41;98926.59;5088882;28;20128;-67
2021/06/08 05:01:09;;;;;;;11.15;5.93;;;;;;;20.33;59.60;98930.38;5088960;28;20040;-68
2021/06/08 05:03:44;;;;;;;15.98;6.80;;;;;;;20.30;59.64;98928.94;5072130;28;20048;-68
2021/06/08 05:06:17;;;;;;;15.27;6.97;;;;;;;20.29;60.17;98935.41;5071718;28;20058;-68
2021/06/08 05:08:51;;;;;;;15.20;7.43;;;;;;;20.25;60.51;98933.41;5072042;28;20173;-67
2021/06/08 05:11:19;;;;;;;8.52;6.40;;;;;;;20.24;60.09;98942.53;5071902;28;20054;-68
2021/06/08 05:13:49;;;;;;;12.40;6.15;;;;;;;20.23;59.46;98935.53;5072119;28;20043;-68
2021/06/08 05:16:16;;;;;;;15.65;6.25;;;;;;;20.26;59.52;98926.97;5071630;28;20529;-68
2021/06/08 05:18:44;;;;;;;10.43;5.45;;;;;;;20.29;59.66;98939.97;5038511;28;20082;-68
2021/06/08 05:21:16;;;;;;;9.68;5.10;;;;;;;20.32;59.61;98934.94;5088570;28;20036;-68
2021/06/08 05:23:42;;;;;;;14.85;4.97;;;;;;;20.33;59.49;98936.56;5055287;28;20040;-68
2021/06/08 05:26:10;;;;;;;14.07;5.07;;;;;;;20.41;59.38;98946.16;5088529;28;20036;-68
2021/06/08 05:28:39;;;;;;;12.25;4.18;;;;;;;20.44;58.70;98933.03;5071705;28;20052;-69
2021/06/08 05:31:05;;;;;;;13.85;4.00;;;;;;;20.47;58.47;98942.50;5071469;28;20067;-69
2021/06/08 05:33:32;;;;;;;12.35;4.25;;;;;;;20.49;58.66;98941.22;5055692;28;20496;-68
2021/06/08 05:35:58;;;;;;;17.00;4.35;;;;;;;20.50;59.31;98940.16;5088651;28;20051;-71
2021/06/08 05:38:40;;;;;;;16.40;4.22;;;;;;;20.53;59.72;98930.75;5073727;28;20067;-68
2021/06/08 05:41:08;;;;;;;13.55;4.70;;;;;;;20.58;60.35;98937.09;5088436;28;20633;-67
2021/06/08 05:43:34;;;;;;;12.98;4.60;;;;;;;20.54;60.14;98924.31;5088544;28;20040;-68
2021/06/08 05:46:00;;;;;;;14.63;4.75;;;;;;;20.75;60.18;98946.06;5038238;28;20416;-69
2021/06/08 05:48:28;;;;;;;8.95;5.10;;;;;;;20.86;60.27;98947.91;5054608;28;20048;-69
2021/06/08 05:50:58;;;;;;;7.15;4.47;;;;;;;21.01;59.50;98940.13;5089292;28;20069;-68
2021/06/08 05:53:24;;;;;;;8.85;5.05;;;;;;;21.03;58.47;98923.69;5089563;28;20093;-68
2021/06/08 05:55:52;;;;;;;11.85;5.15;;;;;;;21.30;57.53;98938.22;5086605;28;20058;-68
2021/06/08 05:58:23;;;;;;;6.07;4.10;;;;;;;21.45;57.20;98947.41;5069496;28;20523;-68
2021/06/08 06:00:49;;;;;;;9.15;4.28;;;;;;;21.55;56.37;98927.84;5069147;28;20411;-68
2021/06/08 06:03:16;;;;;;;12.18;4.47;;;;;;;21.81;55.71;98939.91;5035905;28;20495;-68
2021/06/08 06:05:42;;;;;;;10.05;4.22;;;;;;;22.07;55.14;98942.75;5069195;28;20040;-68
2021/06/08 06:08:08;;;;;;;8.48;4.22;;;;;;;22.34;54.99;98938.25;5036130;28;20169;-68
2021/06/08 06:10:34;;;;;;;7.80;4.22;;;;;;;22.63;54.05;98938.94;5053119;28;20566;-68
2021/06/08 06:13:00;;;;;;;7.63;4.75;;;;;;;22.86;53.35;98942.19;5071392;28;20054;-68
2021/06/08 06:15:28;;;;;;;9.32;4.90;;;;;;;23.09;52.80;98933.75;5088116;28;20066;-68
2021/06/08 06:17:54;;;;;;;14.63;5.05;;;;;;;23.13;52.41;98912.41;5088424;28;20039;-68
2021/06/08 06:20:20;;;;;;;13.65;4.95;;;;;;;23.25;52.11;98915.81;5089533;28;20450;-67
2021/06/08 06:22:46;;;;;;;16.17;4.90;;;;;;;23.40;52.16;98926.81;5037719;28;20072;-68
2021/06/08 06:25:13;;;;;;;11.82;5.10;;;;;;;23.67;51.24;98940.28;5084073;28;20071;-68
2021/06/08 06:27:40;;;;;;;13.60;4.97;;;;;;;23.84;51.09;98936.38;5072463;28;20032;-69
2021/06/08 06:30:10;;;;;;;15.88;4.90;;;;;;;23.97;50.69;98946.78;5092808;28;20051;-68
2021/06/08 06:32:37;;;;;;;20.15;5.65;;;;;;;24.03;50.49;98940.31;5092466;28;20060;-67
2021/06/08 06:35:04;;;;;;;15.68;5.32;;;;;;;24.07;50.16;98935.19;5091437;28;20109;-68
2021/06/08 06:37:31;;;;;;;15.85;5.38;;;;;;;24.12;49.34;98946.09;5074884;28;20066;-68
2021/06/08 06:39:58;;;;;;;10.50;5.18;;;;;;;24.11;49.26;98933.63;5074213;28;20040;-70
2021/06/08 06:42:31;;;;;;;13.68;6.47;;;;;;;24.20;49.54;98942.91;5057431;28;20085;-68
2021/06/08 06:44:57;;;;;;;13.02;6.65;;;;;;;24.23;49.83;98939.66;5091508;28;20544;-69
2021/06/08 06:47:23;;;;;;;19.13;7.18;;;;;;;24.29;50.15;98938.59;5074696;28;20040;-68
2021/06/08 06:49:49;;;;;;;17.15;6.50;;;;;;;24.31;50.13;98922.88;5074303;28;20062;-68
2021/06/08 06:52:16;;;;;;;15.15;6.43;;;;;;;24.54;49.46;98936.03;5092479;28;20043;-68
2021/06/08 06:54:44;;;;;;;17.45;5.57;;;;;;;24.54;48.63;98923.25;5057985;28;20040;-68
2021/06/08 06:57:10;;;;;;;11.38;4.65;;;;;;;24.64;47.61;98930.63;5091026;28;20039;-68
2021/06/08 06:59:36;;;;;;;9.30;4.20;;;;;;;24.65;47.64;98933.09;5074405;28;20036;-68
2021/06/08 07:02:03;;;;;;;15.80;5.50;;;;;;;24.70;47.60;98938.56;5073959;28;20044;-69
2021/06/08 07:04:30;;;;;;;11.02;4.97;;;;;;;24.76;47.62;98932.06;5074709;28;20047;-68
2021/06/08 07:06:56;;;;;;;11.50;4.78;;;;;;;24.76;47.42;98944.81;5057386;28;20142;-68
2021/06/08 07:09:26;;;;;;;11.05;5.50;;;;;;;24.68;47.38;98938.00;5057520;28;20040;-68
2021/06/08 07:11:53;;;;;;;9.50;4.88;;;;;;;24.54;47.48;98944.16;5074080;28;20890;-70
2021/06/08 07:14:19;;;;;;;15.15;6.15;;;;;;;24.41;47.81;98942.75;5092337;28;20039;-68
2021/06/08 07:16:50;;;;;;;12.85;6.38;;;;;;;24.34;48.16;98941.34;5092043;28;20044;-69
2021/06/08 07:19:16;;;;;;;;;;;;;;;24.29;48.62;98941.31;5057651;28;20138;-69
2021/06/08 07:21:43;;;;;;;13.10;6.07;;;;;;;24.27;48.69;98940.75;5040795;28;19974;-68
2021/06/08 07:24:10;;;;;;;12.35;5.82;;;;;;;24.23;48.92;98945.88;5090934;28;20047;-68
2021/06/08 07:26:38;;;;;;;13.38;5.65;;;;;;;24.21;48.78;98939.91;5073943;28;20123;-68
2021/06/08 07:29:09;;;;;;;15.95;5.60;;;;;;;24.15;48.66;98919.25;5057272;28;20078;-69
2021/06/08 07:31:50;;;;;;;13.57;4.85;;;;;;;24.30;48.42;98946.47;5057851;28;20056;-68
2021/06/08 07:34:30;;;;;;;18.40;5.55;;;;;;;24.35;48.71;98945.69;5069733;28;20107;-69
2021/06/08 07:36:57;;;;;;;18.00;5.32;;;;;;;24.43;48.42;98943.28;5071685;28;20048;-68
2021/06/08 07:39:28;;;;;;;14.63;5.75;;;;;;;24.50;48.17;98941.16;5090118;28;20419;-69
2021/06/08 07:42:02;;;;;;;18.17;5.35;;;;;;;24.63;47.78;98939.84;5090224;28;20048;-68
2021/06/08 07:44:34;;;;;;;15.95;4.97;;;;;;;24.92;46.86;98952.75;5091206;28;20048;-69
2021/06/08 07:47:05;;;;;;;10.13;5.03;;;;;;;25.19;46.01;98952.56;5090714;28;20081;-68
2021/06/08 07:49:33;;;;;;;14.25;4.68;;;;;;;25.48;45.06;98948.28;5086979;28;20102;-68
2021/06/08 07:52:01;;;;;;;14.35;4.95;;;;;;;25.81;44.57;98947.75;5079027;28;20036;-68
2021/06/08 07:54:28;;;;;;;16.92;4.70;;;;;;;26.15;43.89;98950.72;5076340;28;20569;-69
2021/06/08 07:56:54;;;;;;;18.33;4.60;;;;;;;26.70;42.87;98947.06;5063183;28;20162;-70
2021/06/08 07:59:21;;;;;;;13.50;5.28;;;;;;;27.40;40.99;98931.13;5069356;28;20036;-68
2021/06/08 08:01:46;;;;;;;11.57;4.93;;;;;;;28.02;39.76;98945.97;5050768;28;20040;-68
2021/06/08 08:04:18;;;;;;;9.75;4.63;;;;;;;28.49;38.58;98940.56;5048738;28;20499;-68
2021/06/08 08:06:47;;;;;;;17.20;4.78;;;;;;;28.95;37.79;98939.72;5077051;28;20488;-68
2021/06/08 08:09:14;;;;;;;19.15;5.00;;;;;;;30.41;35.31;98935.47;5078298;28;20048;-69
2021/06/08 08:11:42;;;;;;;13.55;4.70;;;;;;;31.46;33.56;98935.13;5063714;28;20421;-68
2021/06/08 08:14:11;;;;;;;18.67;5.60;;;;;;;32.74;31.67;98929.63;5050157;28;20040;-69
2021/06/08 08:16:37;;;;;;;14.02;4.35;;;;;;;34.60;28.53;98927.13;5019253;28;20546;-70
2021/06/08 08:19:06;;;;;;;10.32;4.13;;;;;;;35.52;26.97;98930.41;5028161;28;20072;-69
2021/06/08 08:21:32;;;;;;;12.13;4.18;;;;;;;36.36;26.15;98927.19;5065072;28;20561;-70
2021/06/08 08:23:58;;;;;;;13.15;3.95;;;;;;;38.29;23.66;98932.31;5072796;28;20040;-69
2021/06/08 08:26:24;;;;;;;13.80;4.03;;;;;;;40.68;20.78;98923.63;5022987;28;20040;-69
2021/06/08 08:28:50;;;;;;;16.55;3.88;;;;;;;41.99;19.64;98915.91;5056059;28;20052;-69
2021/06/08 08:31:18;;;;;;;12.23;3.72;;;;;;;43.73;17.51;98912.84;5054511;28;20035;-71
2021/06/08 08:33:45;;;;;;;13.55;3.60;;;;;;;45.05;16.30;98910.63;5050904;28;20466;-68
2021/06/08 08:36:11;;;;;;;9.75;3.28;;;;;;;46.26;15.12;98911.72;5062897;28;20040;-69
2021/06/08 08:38:38;;;;;;;16.65;3.20;;;;;;;46.84;14.46;98908.81;5062118;28;20597;-69
2021/06/08 08:41:05;;;;;;;8.05;2.80;;;;;;;47.48;13.76;98904.13;5045427;28;20041;-69
2021/06/08 08:43:31;;;;;;;12.18;2.40;;;;;;;47.84;13.38;98887.59;5037570;28;20040;-69
2021/06/08 08:45:57;;;;;;;10.48;2.63;;;;;;;48.24;12.85;98897.88;5068298;28;20135;-69
2021/06/08 08:48:23;;;;;;;11.65;2.97;;;;;;;48.76;12.53;98897.00;5069763;28;20036;-69
2021/06/08 08:50:49;;;;;;;11.82;3.08;;;;;;;49.31;12.06;98887.94;5049531;28;20109;-69
2021/06/08 08:53:18;;;;;;;7.65;2.15;;;;;;;49.51;12.03;98885.91;5046471;28;20047;-70
2021/06/08 08:55:45;;;;;;;8.52;2.88;;;;;;;49.63;11.73;98890.88;5077888;28;20046;-69
2021/06/08 08:58:12;;;;;;;6.28;2.40;;;;;;;49.73;11.88;98881.41;5062674;28;20516;-70
2021/06/08 09:00:38;;;;;;;5.30;1.98;;;;;;;49.74;11.72;98874.53;5045907;28;20495;-70
2021/06/08 09:03:05;;;;;;;9.88;1.80;;;;;;;49.87;11.14;98877.47;5045761;28;20044;-70
2021/06/08 09:05:37;;;;;;;6.28;1.48;;;;;;;50.30;10.95;98876.00;5044742;28;20048;-70
2021/06/08 09:08:04;;;;;;;5.38;1.60;;;;;;;50.71;10.91;98866.94;5054190;28;20043;-71
2021/06/08 09:10:32;;;;;;;6.25;1.80;;;;;;;51.19;10.28;98869.66;5077545;28;20044;-70
2021/06/08 09:12:58;;;;;;;3.13;1.30;;;;;;;51.66;10.07;98873.53;5069139;28;20503;-70
2021/06/08 09:15:24;;;;;;;8.30;1.70;;;;;;;51.68;9.71;98870.25;5045619;28;20042;-70
2021/06/08 09:17:57;;;;;;;4.43;1.80;;;;;;;51.84;9.46;98850.34;5043711;28;20044;-70
2021/06/08 09:20:23;;;;;;;6.72;1.73;;;;;;;52.21;9.81;98858.00;5076982;28;20048;-71
2021/06/08 09:22:52;;;;;;;9.85;1.83;;;;;;;52.45;9.58;98858.47;5034917;28;20036;-70
2021/06/08 09:25:42;;;;;;;7.93;1.70;;;;;;;52.33;9.79;98860.09;5062368;28;20089;-70
2021/06/08 09:28:36;;;;;;;7.45;2.28;;;;;;;52.47;9.36;98858.81;5018936;28;20686;-70
2021/06/08 09:31:11;;;;;;;9.10;2.00;;;;;;;52.50;9.17;98840.88;5051620;28;20076;-73
2021/06/08 09:33:39;;;;;;;8.13;1.67;;;;;;;52.60;9.49;98840.50;5044901;28;20036;-69
2021/06/08 09:36:23;;;;;;;6.47;2.10;;;;;;;52.24;9.92;98840.09;5044651;28;20105;-69
2021/06/08 09:38:55;;;;;;;7.28;2.10;;;;;;;51.96;9.52;98832.53;5052238;28;20044;-70
2021/06/08 09:41:30;;;;;;;4.95;1.90;;;;;;;50.56;10.48;98828.94;5045729;28;20504;-71
2021/06/08 09:44:02;;;;;;;3.38;1.83;;;;;;;50.03;10.68;98829.47;5059391;28;20040;-70
2021/06/08 09:46:47;;;;;;;5.35;2.33;;;;;;;50.38;10.62;98822.94;5062789;28;20174;-69
2021/06/08 09:49:18;;;;;;;8.00;2.38;;;;;;;50.95;10.49;98810.91;5038655;28;20196;-68
2021/06/08 09:51:50;;;;;;;6.63;2.28;;;;;;;51.44;10.09;98809.50;5052461;28;20127;-69
2021/06/08 09:54:40;;;;;;;15.68;2.50;;;;;;;51.69;10.18;98801.00;5058096;28;20055;-71
2021/06/08 09:57:26;;;;;;;5.05;2.25;;;;;;;51.40;9.92;98805.97;5067022;28;20052;-70
2021/06/08 09:59:59;;;;;;;5.88;2.30;;;;;;;51.36;10.09;98796.78;5055434;28;20047;-69
2021/06/08 10:02:29;;;;;;;5.20;2.30;;;;;;;51.26;10.06;98793.00;5058067;28;20418;-70
2021/06/08 10:05:30;;;;;;;6.97;2.72;;;;;;;51.72;10.05;98792.41;5059002;28;20044;-70
2021/06/08 10:07:58;;;;;;;8.55;2.60;;;;;;;51.93;10.02;98790.94;5058722;28;20138;-69
2021/06/08 10:10:35;;;;;;;20.13;2.97;;;;;;;51.71;9.65;98792.88;5058850;28;20619;-68
2021/06/08 10:13:12;;;;;;;13.35;3.10;;;;;;;51.61;9.71;98783.44;5075379;28;20500;-68
2021/06/08 10:15:50;;;;;;;11.70;3.20;;;;;;;51.22;10.34;98780.22;5085066;28;20401;-69
2021/06/08 10:18:16;;;;;;;5.50;2.90;;;;;;;51.06;10.60;98774.63;5049024;28;20047;-69
2021/06/08 10:20:48;;;;;;;9.77;2.70;;;;;;;49.08;11.35;98764.66;5030185;28;20500;-69
2021/06/08 10:23:34;;;;;;;10.52;2.58;;;;;;;46.06;13.35;98757.75;5056151;28;20757;-69
2021/06/08 10:26:06;;;;;;;6.82;3.33;;;;;;;43.54;14.85;98748.13;5081063;28;20054;-68
2021/06/08 10:28:32;;;;;;;7.75;3.03;;;;;;;41.60;16.87;98746.13;5049379;28;20098;-68
2021/06/08 10:30:59;;;;;;;4.68;2.53;;;;;;;41.42;16.91;98741.53;5065353;28;20086;-68
2021/06/08 10:33:26;;;;;;;6.70;2.50;;;;;;;42.57;15.77;98747.31;5046365;28;20139;-68
2021/06/08 10:35:53;;;;;;;7.40;2.90;;;;;;;43.18;15.43;98740.81;5054036;28;20054;-68
2021/06/08 10:38:20;;;;;;;6.18;2.00;;;;;;;43.72;14.83;98748.16;5088286;28;20053;-67
2021/06/08 10:40:50;;;;;;;8.32;2.60;;;;;;;42.40;15.59;98734.06;5054819;28;20036;-69
2021/06/08 10:43:20;;;;;;;4.75;2.25;;;;;;;40.84;16.81;98732.09;5054514;28;20052;-67
2021/06/08 10:45:46;;;;;;;;;;;;;;;39.29;18.05;98729.53;5054282;28;20442;-67
2021/06/08 10:48:18;;;;;;;4.53;2.60;;;;;;;38.00;19.42;98719.94;5050937;28;19924;-67
2021/06/08 10:50:47;;;;;;;4.95;2.20;;;;;;;37.21;19.68;98721.06;5050404;28;20662;-67
2021/06/08 10:53:36;;;;;;;11.70;2.70;;;;;;;36.38;21.25;98724.91;5050434;28;20049;-66
2021/06/08 10:56:18;;;;;;;4.75;3.10;;;;;;;35.62;22.37;98720.03;5033843;28;20076;-68
2021/06/08 10:58:46;;;;;;;8.90;3.30;;;;;;;34.75;23.98;98700.28;5066702;28;20076;-66
2021/06/08 11:01:30;;;;;;;11.82;3.33;;;;;;;33.84;25.61;98711.25;5066920;28;20637;-69
2021/06/08 11:03:57;;;;;;;8.68;3.40;;;;;;;32.90;27.12;98718.97;5063829;28;20134;-66
2021/06/08 11:06:51;;;;;;;7.35;3.72;;;;;;;32.06;28.58;98719.34;5023536;28;20044;-66
2021/06/08 11:09:21;;;;;;;10.80;3.40;;;;;;;31.32;29.85;98716.78;5060897;28;20055;-66
2021/06/08 11:11:57;;;;;;;13.25;3.42;;;;;;;30.93;30.74;98709.25;5032985;28;20524;-66
2021/06/08 11:14:32;;;;;;;4.75;3.30;;;;;;;30.74;31.37;98717.63;5065411;28;20044;-66
2021/06/08 11:17:03;;;;;;;11.07;3.88;;;;;;;30.50;31.84;98713.56;5061965;28;20032;-67
2021/06/08 11:19:51;;;;;;;8.10;3.80;;;;;;;30.03;33.43;98701.16;5066316;28;20516;-68
2021/06/08 11:22:19;;;;;;;12.88;3.88;;;;;;;29.66;35.14;98717.00;5080239;28;20062;-67
2021/06/08 11:24:48;;;;;;;12.10;3.80;;;;;;;29.14;36.63;98734.63;5062732;28;20044;-68
2021/06/08 11:27:14;;;;;;;10.68;4.25;;;;;;;28.59;37.96;98735.50;5081253;28;20858;-68
2021/06/08 11:29:49;;;;;;;13.23;4.40;;;;;;;28.20;39.36;98754.06;5063753;28;20124;-69
2021/06/08 11:32:34;;;;;;;7.28;3.85;;;;;;;27.76;39.92;98757.03;5056927;28;20055;-68
2021/06/08 11:35:17;;;;;;;10.77;4.20;;;;;;;27.25;41.35;98761.34;5057407;28;20089;-67
2021/06/08 11:37:55;;;;;;;13.48;3.90;;;;;;;26.70;42.19;98775.41;5057877;28;20526;-67